sensor_id;sensor_type;location;lat;lon;timestamp;temperature;humidity
65406;DHT22;52016;51.228;-2.322;2022-11-03T00:02:48;12.20;85.10
65406;DHT22;52016;51.228;-2.322;2022-11-03T00:06:31;12.20;85.20
65406;DHT22;52016;51.228;-2.322;2022-11-03T00:10:13;12.20;85.30
65406;DHT22;52016;51.228;-2.322;2022-11-03T00:13:55;12.20;85.30
65406;DHT22;52016;51.228;-2.322;2022-11-03T00:17:37;12.10;85.20
65406;DHT22;52016;51.228;-2.322;2022-11-03T00:21:19;12.20;85.20
65406;DHT22;52016;51.228;-2.322;2022-11-03T00:25:01;12.10;85.10
65406;DHT22;52016;51.228;-2.322;2022-11-03T00:28:44;12.10;85.30
65406;DHT22;52016;51.228;-2.322;2022-11-03T00:32:26;12.10;85.20
65406;DHT22;52016;51.228;-2.322;2022-11-03T00:36:13;12.10;85.30
65406;DHT22;52016;51.228;-2.322;2022-11-03T00:39:55;12.10;85.30
65406;DHT22;52016;51.228;-2.322;2022-11-03T00:43:37;12.10;85.40
65406;DHT22;52016;51.228;-2.322;2022-11-03T00:47:19;12.10;85.30
65406;DHT22;52016;51.228;-2.322;2022-11-03T00:51:07;12.00;85.20
65406;DHT22;52016;51.228;-2.322;2022-11-03T00:54:49;12.00;85.20
65406;DHT22;52016;51.228;-2.322;2022-11-03T00:58:35;12.10;85.30
65406;DHT22;52016;51.228;-2.322;2022-11-03T01:02:17;12.00;85.30
65406;DHT22;52016;51.228;-2.322;2022-11-03T01:06:00;12.00;85.30
65406;DHT22;52016;51.228;-2.322;2022-11-03T01:10:00;12.00;85.30
65406;DHT22;52016;51.228;-2.322;2022-11-03T01:13:42;11.90;85.20
65406;DHT22;52016;51.228;-2.322;2022-11-03T01:17:26;11.90;85.30
65406;DHT22;52016;51.228;-2.322;2022-11-03T01:21:08;11.90;85.30
65406;DHT22;52016;51.228;-2.322;2022-11-03T01:24:50;11.90;85.20
65406;DHT22;52016;51.228;-2.322;2022-11-03T01:28:36;11.90;85.10
65406;DHT22;52016;51.228;-2.322;2022-11-03T01:32:18;11.80;85.10
65406;DHT22;52016;51.228;-2.322;2022-11-03T01:36:00;11.80;85.20
65406;DHT22;52016;51.228;-2.322;2022-11-03T01:39:42;11.80;85.20
65406;DHT22;52016;51.228;-2.322;2022-11-03T01:43:24;11.80;85.20
65406;DHT22;52016;51.228;-2.322;2022-11-03T01:47:14;11.80;85.30
65406;DHT22;52016;51.228;-2.322;2022-11-03T01:51:02;11.80;85.20
65406;DHT22;52016;51.228;-2.322;2022-11-03T01:54:51;11.80;85.30
65406;DHT22;52016;51.228;-2.322;2022-11-03T01:58:36;11.80;85.30
65406;DHT22;52016;51.228;-2.322;2022-11-03T02:02:18;11.80;85.20
65406;DHT22;52016;51.228;-2.322;2022-11-03T02:06:01;11.70;85.20
65406;DHT22;52016;51.228;-2.322;2022-11-03T02:09:43;11.70;85.20
65406;DHT22;52016;51.228;-2.322;2022-11-03T02:13:26;11.70;85.20
65406;DHT22;52016;51.228;-2.322;2022-11-03T02:17:10;11.70;85.20
65406;DHT22;52016;51.228;-2.322;2022-11-03T02:21:17;11.70;85.20
65406;DHT22;52016;51.228;-2.322;2022-11-03T02:29:02;11.70;85.20
65406;DHT22;52016;51.228;-2.322;2022-11-03T02:33:02;11.60;85.10
65406;DHT22;52016;51.228;-2.322;2022-11-03T02:37:19;11.60;85.20
65406;DHT22;52016;51.228;-2.322;2022-11-03T02:41:02;11.60;85.20
65406;DHT22;52016;51.228;-2.322;2022-11-03T02:44:46;11.60;85.10
65406;DHT22;52016;51.228;-2.322;2022-11-03T02:48:29;11.60;85.10
65406;DHT22;52016;51.228;-2.322;2022-11-03T02:52:43;11.50;85.00
65406;DHT22;52016;51.228;-2.322;2022-11-03T02:56:25;11.50;85.20
65406;DHT22;52016;51.228;-2.322;2022-11-03T03:00:08;11.50;85.00
65406;DHT22;52016;51.228;-2.322;2022-11-03T03:04:07;11.40;85.00
65406;DHT22;52016;51.228;-2.322;2022-11-03T03:07:52;11.40;85.00
65406;DHT22;52016;51.228;-2.322;2022-11-03T03:11:40;11.40;85.00
65406;DHT22;52016;51.228;-2.322;2022-11-03T03:15:30;11.40;84.90
65406;DHT22;52016;51.228;-2.322;2022-11-03T03:27:20;11.30;85.00
65406;DHT22;52016;51.228;-2.322;2022-11-03T03:31:07;11.30;84.90
65406;DHT22;52016;51.228;-2.322;2022-11-03T03:34:50;11.30;85.00
65406;DHT22;52016;51.228;-2.322;2022-11-03T03:38:37;11.20;85.00
65406;DHT22;52016;51.228;-2.322;2022-11-03T03:42:21;11.30;84.90
65406;DHT22;52016;51.228;-2.322;2022-11-03T03:46:06;11.20;84.90
65406;DHT22;52016;51.228;-2.322;2022-11-03T03:49:51;11.20;84.80
65406;DHT22;52016;51.228;-2.322;2022-11-03T03:53:32;11.10;84.90
65406;DHT22;52016;51.228;-2.322;2022-11-03T03:57:16;11.10;84.80
65406;DHT22;52016;51.228;-2.322;2022-11-03T04:00:59;11.20;84.80
65406;DHT22;52016;51.228;-2.322;2022-11-03T04:04:41;11.10;84.80
65406;DHT22;52016;51.228;-2.322;2022-11-03T04:08:22;11.10;84.80
65406;DHT22;52016;51.228;-2.322;2022-11-03T04:12:04;11.10;84.80
65406;DHT22;52016;51.228;-2.322;2022-11-03T04:16:06;11.10;84.80
65406;DHT22;52016;51.228;-2.322;2022-11-03T04:20:11;11.10;84.70
65406;DHT22;52016;51.228;-2.322;2022-11-03T04:24:12;11.00;84.70
65406;DHT22;52016;51.228;-2.322;2022-11-03T04:27:54;11.00;84.70
65406;DHT22;52016;51.228;-2.322;2022-11-03T04:31:36;11.00;84.80
65406;DHT22;52016;51.228;-2.322;2022-11-03T04:35:24;10.90;84.80
65406;DHT22;52016;51.228;-2.322;2022-11-03T04:39:15;10.90;84.80
65406;DHT22;52016;51.228;-2.322;2022-11-03T04:42:59;10.90;84.80
65406;DHT22;52016;51.228;-2.322;2022-11-03T04:46:42;10.90;84.80
65406;DHT22;52016;51.228;-2.322;2022-11-03T04:50:25;10.90;84.60
65406;DHT22;52016;51.228;-2.322;2022-11-03T04:54:17;10.90;84.70
65406;DHT22;52016;51.228;-2.322;2022-11-03T04:58:05;10.80;84.70
65406;DHT22;52016;51.228;-2.322;2022-11-03T05:01:50;10.80;84.70
65406;DHT22;52016;51.228;-2.322;2022-11-03T05:05:32;10.80;84.80
65406;DHT22;52016;51.228;-2.322;2022-11-03T05:09:18;10.80;84.70
65406;DHT22;52016;51.228;-2.322;2022-11-03T05:13:00;10.80;84.70
65406;DHT22;52016;51.228;-2.322;2022-11-03T05:16:43;10.80;84.70
65406;DHT22;52016;51.228;-2.322;2022-11-03T05:20:32;10.70;84.70
65406;DHT22;52016;51.228;-2.322;2022-11-03T05:24:18;10.70;84.70
65406;DHT22;52016;51.228;-2.322;2022-11-03T05:28:01;10.70;84.60
65406;DHT22;52016;51.228;-2.322;2022-11-03T05:31:46;10.70;84.60
65406;DHT22;52016;51.228;-2.322;2022-11-03T05:35:28;10.60;84.60
65406;DHT22;52016;51.228;-2.322;2022-11-03T05:39:25;10.60;84.60
65406;DHT22;52016;51.228;-2.322;2022-11-03T05:43:11;10.60;84.80
65406;DHT22;52016;51.228;-2.322;2022-11-03T05:46:54;10.60;84.70
65406;DHT22;52016;51.228;-2.322;2022-11-03T05:50:39;10.50;84.70
65406;DHT22;52016;51.228;-2.322;2022-11-03T05:54:25;10.50;84.60
65406;DHT22;52016;51.228;-2.322;2022-11-03T05:58:30;10.50;84.60
65406;DHT22;52016;51.228;-2.322;2022-11-03T06:02:32;10.40;84.70
65406;DHT22;52016;51.228;-2.322;2022-11-03T06:06:23;10.40;84.70
65406;DHT22;52016;51.228;-2.322;2022-11-03T06:14:19;10.30;84.70
65406;DHT22;52016;51.228;-2.322;2022-11-03T06:18:18;10.30;84.70
65406;DHT22;52016;51.228;-2.322;2022-11-03T06:22:09;10.30;84.70
65406;DHT22;52016;51.228;-2.322;2022-11-03T06:25:53;10.30;84.60
65406;DHT22;52016;51.228;-2.322;2022-11-03T06:29:36;10.30;84.70
65406;DHT22;52016;51.228;-2.322;2022-11-03T06:33:29;10.30;84.80
65406;DHT22;52016;51.228;-2.322;2022-11-03T06:37:28;10.20;84.90
65406;DHT22;52016;51.228;-2.322;2022-11-03T06:41:22;10.30;84.90
65406;DHT22;52016;51.228;-2.322;2022-11-03T06:45:16;10.30;84.80
65406;DHT22;52016;51.228;-2.322;2022-11-03T06:49:00;10.30;84.90
65406;DHT22;52016;51.228;-2.322;2022-11-03T06:52:47;10.30;84.90
65406;DHT22;52016;51.228;-2.322;2022-11-03T06:56:36;10.20;84.90
65406;DHT22;52016;51.228;-2.322;2022-11-03T07:00:28;10.20;84.90
65406;DHT22;52016;51.228;-2.322;2022-11-03T07:04:19;10.20;85.00
65406;DHT22;52016;51.228;-2.322;2022-11-03T07:12:00;10.30;85.10
65406;DHT22;52016;51.228;-2.322;2022-11-03T07:15:43;10.30;85.10
65406;DHT22;52016;51.228;-2.322;2022-11-03T07:19:29;10.30;85.10
65406;DHT22;52016;51.228;-2.322;2022-11-03T07:23:18;10.30;85.20
65406;DHT22;52016;51.228;-2.322;2022-11-03T07:27:35;10.30;85.20
65406;DHT22;52016;51.228;-2.322;2022-11-03T07:31:22;10.30;85.30
65406;DHT22;52016;51.228;-2.322;2022-11-03T07:39:33;10.30;85.40
65406;DHT22;52016;51.228;-2.322;2022-11-03T07:47:00;10.40;85.40
65406;DHT22;52016;51.228;-2.322;2022-11-03T07:50:43;10.40;85.20
65406;DHT22;52016;51.228;-2.322;2022-11-03T07:54:31;10.40;85.20
65406;DHT22;52016;51.228;-2.322;2022-11-03T07:58:34;10.40;85.20
65406;DHT22;52016;51.228;-2.322;2022-11-03T08:02:36;10.40;85.30
65406;DHT22;52016;51.228;-2.322;2022-11-03T08:06:20;10.40;85.20
65406;DHT22;52016;51.228;-2.322;2022-11-03T08:10:02;10.40;85.30
65406;DHT22;52016;51.228;-2.322;2022-11-03T08:13:44;10.50;85.20
65406;DHT22;52016;51.228;-2.322;2022-11-03T08:17:26;10.50;85.30
65406;DHT22;52016;51.228;-2.322;2022-11-03T08:21:08;10.50;85.20
65406;DHT22;52016;51.228;-2.322;2022-11-03T08:24:51;10.60;85.30
65406;DHT22;52016;51.228;-2.322;2022-11-03T08:28:33;10.60;85.30
65406;DHT22;52016;51.228;-2.322;2022-11-03T08:32:14;10.60;85.30
65406;DHT22;52016;51.228;-2.322;2022-11-03T08:35:56;10.60;85.30
65406;DHT22;52016;51.228;-2.322;2022-11-03T08:39:38;10.60;85.30
65406;DHT22;52016;51.228;-2.322;2022-11-03T08:43:20;10.60;85.40
65406;DHT22;52016;51.228;-2.322;2022-11-03T08:47:02;10.70;85.40
65406;DHT22;52016;51.228;-2.322;2022-11-03T08:50:44;10.70;85.50
65406;DHT22;52016;51.228;-2.322;2022-11-03T08:54:25;10.70;85.40
65406;DHT22;52016;51.228;-2.322;2022-11-03T08:58:07;10.70;85.40
65406;DHT22;52016;51.228;-2.322;2022-11-03T09:01:50;10.80;85.30
65406;DHT22;52016;51.228;-2.322;2022-11-03T09:05:32;10.70;85.30
65406;DHT22;52016;51.228;-2.322;2022-11-03T09:09:13;10.60;85.30
65406;DHT22;52016;51.228;-2.322;2022-11-03T09:13:16;10.70;85.30
65406;DHT22;52016;51.228;-2.322;2022-11-03T09:16:58;10.60;85.30
65406;DHT22;52016;51.228;-2.322;2022-11-03T09:20:40;10.60;85.30
65406;DHT22;52016;51.228;-2.322;2022-11-03T09:24:21;10.60;85.30
65406;DHT22;52016;51.228;-2.322;2022-11-03T09:28:03;10.60;85.30
65406;DHT22;52016;51.228;-2.322;2022-11-03T09:31:46;10.60;85.30
65406;DHT22;52016;51.228;-2.322;2022-11-03T09:35:28;10.70;85.30
65406;DHT22;52016;51.228;-2.322;2022-11-03T09:39:09;10.70;85.40
65406;DHT22;52016;51.228;-2.322;2022-11-03T09:42:51;10.70;85.40
65406;DHT22;52016;51.228;-2.322;2022-11-03T09:46:33;10.80;85.40
65406;DHT22;52016;51.228;-2.322;2022-11-03T09:50:18;10.80;85.40
65406;DHT22;52016;51.228;-2.322;2022-11-03T09:54:03;10.80;85.40
65406;DHT22;52016;51.228;-2.322;2022-11-03T09:57:45;10.90;85.30
65406;DHT22;52016;51.228;-2.322;2022-11-03T10:01:27;10.90;85.30
65406;DHT22;52016;51.228;-2.322;2022-11-03T10:05:12;11.00;85.30
65406;DHT22;52016;51.228;-2.322;2022-11-03T10:08:56;11.10;85.20
65406;DHT22;52016;51.228;-2.322;2022-11-03T10:12:38;11.10;85.20
65406;DHT22;52016;51.228;-2.322;2022-11-03T10:16:22;11.10;85.20
65406;DHT22;52016;51.228;-2.322;2022-11-03T10:20:08;11.10;85.10
65406;DHT22;52016;51.228;-2.322;2022-11-03T10:23:51;11.20;85.00
65406;DHT22;52016;51.228;-2.322;2022-11-03T10:27:33;11.10;84.80
65406;DHT22;52016;51.228;-2.322;2022-11-03T10:31:19;11.10;84.70
65406;DHT22;52016;51.228;-2.322;2022-11-03T10:35:03;11.10;84.80
65406;DHT22;52016;51.228;-2.322;2022-11-03T10:39:33;11.20;84.90
65406;DHT22;52016;51.228;-2.322;2022-11-03T10:43:15;11.20;84.60
65406;DHT22;52016;51.228;-2.322;2022-11-03T10:47:02;11.30;85.00
65406;DHT22;52016;51.228;-2.322;2022-11-03T10:50:44;11.20;85.00
65406;DHT22;52016;51.228;-2.322;2022-11-03T10:54:25;11.20;84.90
65406;DHT22;52016;51.228;-2.322;2022-11-03T10:58:08;11.20;84.90
65406;DHT22;52016;51.228;-2.322;2022-11-03T11:01:51;11.20;84.90
65406;DHT22;52016;51.228;-2.322;2022-11-03T11:05:33;11.20;84.80
65406;DHT22;52016;51.228;-2.322;2022-11-03T11:09:22;11.10;84.60
65406;DHT22;52016;51.228;-2.322;2022-11-03T11:17:02;11.10;84.50
65406;DHT22;52016;51.228;-2.322;2022-11-03T11:20:46;11.20;85.60
65406;DHT22;52016;51.228;-2.322;2022-11-03T11:28:25;12.00;86.60
65406;DHT22;52016;51.228;-2.322;2022-11-03T11:36:28;12.90;85.30
65406;DHT22;52016;51.228;-2.322;2022-11-03T11:48:30;13.40;82.70
65406;DHT22;52016;51.228;-2.322;2022-11-03T11:52:12;13.30;84.80
65406;DHT22;52016;51.228;-2.322;2022-11-03T11:56:01;13.00;84.40
65406;DHT22;52016;51.228;-2.322;2022-11-03T11:59:45;12.90;84.80
65406;DHT22;52016;51.228;-2.322;2022-11-03T12:03:40;13.20;85.70
65406;DHT22;52016;51.228;-2.322;2022-11-03T12:07:35;13.40;84.30
65406;DHT22;52016;51.228;-2.322;2022-11-03T12:11:40;13.50;84.10
65406;DHT22;52016;51.228;-2.322;2022-11-03T12:15:55;13.90;83.80
65406;DHT22;52016;51.228;-2.322;2022-11-03T12:23:35;15.40;84.60
65406;DHT22;52016;51.228;-2.322;2022-11-03T12:31:01;15.60;83.10
65406;DHT22;52016;51.228;-2.322;2022-11-03T12:34:43;15.60;83.30
65406;DHT22;52016;51.228;-2.322;2022-11-03T12:38:26;15.80;83.40
65406;DHT22;52016;51.228;-2.322;2022-11-03T12:42:08;16.10;82.70
65406;DHT22;52016;51.228;-2.322;2022-11-03T12:45:50;15.90;81.80
65406;DHT22;52016;51.228;-2.322;2022-11-03T12:49:31;15.90;82.50
65406;DHT22;52016;51.228;-2.322;2022-11-03T12:53:13;16.10;82.50
65406;DHT22;52016;51.228;-2.322;2022-11-03T12:56:55;16.40;81.60
65406;DHT22;52016;51.228;-2.322;2022-11-03T13:00:36;16.30;80.30
65406;DHT22;52016;51.228;-2.322;2022-11-03T13:04:18;15.90;79.50
65406;DHT22;52016;51.228;-2.322;2022-11-03T13:08:00;15.60;79.60
65406;DHT22;52016;51.228;-2.322;2022-11-03T13:11:42;15.40;79.10
65406;DHT22;52016;51.228;-2.322;2022-11-03T13:15:42;15.40;80.20
65406;DHT22;52016;51.228;-2.322;2022-11-03T13:19:24;15.60;79.20
65406;DHT22;52016;51.228;-2.322;2022-11-03T13:23:06;15.40;78.50
65406;DHT22;52016;51.228;-2.322;2022-11-03T13:26:48;15.20;78.30
65406;DHT22;52016;51.228;-2.322;2022-11-03T13:30:31;14.90;77.70
65406;DHT22;52016;51.228;-2.322;2022-11-03T13:34:14;14.60;76.80
65406;DHT22;52016;51.228;-2.322;2022-11-03T13:37:56;14.30;77.00
65406;DHT22;52016;51.228;-2.322;2022-11-03T13:41:37;14.00;77.30
65406;DHT22;52016;51.228;-2.322;2022-11-03T13:45:19;13.90;77.10
65406;DHT22;52016;51.228;-2.322;2022-11-03T13:49:01;13.80;76.80
65406;DHT22;52016;51.228;-2.322;2022-11-03T13:53:03;13.60;76.70
65406;DHT22;52016;51.228;-2.322;2022-11-03T13:57:04;13.40;76.50
65406;DHT22;52016;51.228;-2.322;2022-11-03T14:01:06;13.10;76.60
65406;DHT22;52016;51.228;-2.322;2022-11-03T14:04:48;13.00;76.60
65406;DHT22;52016;51.228;-2.322;2022-11-03T14:08:30;12.90;76.30
65406;DHT22;52016;51.228;-2.322;2022-11-03T14:12:12;12.70;76.40
65406;DHT22;52016;51.228;-2.322;2022-11-03T14:16:11;12.60;77.10
65406;DHT22;52016;51.228;-2.322;2022-11-03T14:19:53;12.90;78.40
65406;DHT22;52016;51.228;-2.322;2022-11-03T14:23:44;13.60;79.30
65406;DHT22;52016;51.228;-2.322;2022-11-03T14:27:26;14.20;79.40
65406;DHT22;52016;51.228;-2.322;2022-11-03T14:31:08;14.50;78.80
65406;DHT22;52016;51.228;-2.322;2022-11-03T14:34:50;14.40;78.00
65406;DHT22;52016;51.228;-2.322;2022-11-03T14:38:31;14.20;77.90
65406;DHT22;52016;51.228;-2.322;2022-11-03T14:42:13;14.10;77.70
65406;DHT22;52016;51.228;-2.322;2022-11-03T14:45:57;14.10;77.70
65406;DHT22;52016;51.228;-2.322;2022-11-03T14:49:38;14.40;77.70
65406;DHT22;52016;51.228;-2.322;2022-11-03T14:53:20;14.90;76.90
65406;DHT22;52016;51.228;-2.322;2022-11-03T14:57:03;15.50;76.10
65406;DHT22;52016;51.228;-2.322;2022-11-03T15:00:45;16.00;76.10
65406;DHT22;52016;51.228;-2.322;2022-11-03T15:04:27;16.30;76.30
65406;DHT22;52016;51.228;-2.322;2022-11-03T15:08:14;16.60;76.60
65406;DHT22;52016;51.228;-2.322;2022-11-03T15:11:56;17.00;75.50
65406;DHT22;52016;51.228;-2.322;2022-11-03T15:15:38;17.10;75.20
65406;DHT22;52016;51.228;-2.322;2022-11-03T15:19:21;16.80;72.50
65406;DHT22;52016;51.228;-2.322;2022-11-03T15:23:04;16.20;71.60
65406;DHT22;52016;51.228;-2.322;2022-11-03T15:27:06;15.50;72.40
65406;DHT22;52016;51.228;-2.322;2022-11-03T15:30:48;14.90;72.50
65406;DHT22;52016;51.228;-2.322;2022-11-03T15:34:30;14.50;72.90
65406;DHT22;52016;51.228;-2.322;2022-11-03T15:38:12;14.10;72.60
65406;DHT22;52016;51.228;-2.322;2022-11-03T15:41:54;13.80;73.20
65406;DHT22;52016;51.228;-2.322;2022-11-03T15:45:37;13.50;72.90
65406;DHT22;52016;51.228;-2.322;2022-11-03T15:49:19;13.30;73.00
65406;DHT22;52016;51.228;-2.322;2022-11-03T15:53:00;13.00;73.60
65406;DHT22;52016;51.228;-2.322;2022-11-03T15:56:42;12.80;73.80
65406;DHT22;52016;51.228;-2.322;2022-11-03T16:00:24;12.80;74.10
65406;DHT22;52016;51.228;-2.322;2022-11-03T16:04:06;12.70;74.50
65406;DHT22;52016;51.228;-2.322;2022-11-03T16:07:48;12.60;74.60
65406;DHT22;52016;51.228;-2.322;2022-11-03T16:11:29;12.60;74.60
65406;DHT22;52016;51.228;-2.322;2022-11-03T16:15:11;12.50;74.80
65406;DHT22;52016;51.228;-2.322;2022-11-03T16:18:53;12.40;74.90
65406;DHT22;52016;51.228;-2.322;2022-11-03T16:22:35;12.40;75.10
65406;DHT22;52016;51.228;-2.322;2022-11-03T16:26:17;12.30;75.20
65406;DHT22;52016;51.228;-2.322;2022-11-03T16:30:02;12.30;75.40
65406;DHT22;52016;51.228;-2.322;2022-11-03T16:33:44;12.20;75.60
65406;DHT22;52016;51.228;-2.322;2022-11-03T16:37:26;12.20;75.80
65406;DHT22;52016;51.228;-2.322;2022-11-03T16:41:09;12.20;75.90
65406;DHT22;52016;51.228;-2.322;2022-11-03T16:44:51;12.10;76.00
65406;DHT22;52016;51.228;-2.322;2022-11-03T16:48:33;12.10;76.10
65406;DHT22;52016;51.228;-2.322;2022-11-03T16:52:14;12.10;76.20
65406;DHT22;52016;51.228;-2.322;2022-11-03T16:55:56;12.00;76.30
65406;DHT22;52016;51.228;-2.322;2022-11-03T16:59:38;12.00;76.30
65406;DHT22;52016;51.228;-2.322;2022-11-03T17:03:20;11.90;76.30
65406;DHT22;52016;51.228;-2.322;2022-11-03T17:07:01;11.90;76.30
65406;DHT22;52016;51.228;-2.322;2022-11-03T17:10:43;11.90;76.30
65406;DHT22;52016;51.228;-2.322;2022-11-03T17:14:25;11.90;76.40
65406;DHT22;52016;51.228;-2.322;2022-11-03T17:18:07;11.90;76.50
65406;DHT22;52016;51.228;-2.322;2022-11-03T17:21:50;11.90;76.40
65406;DHT22;52016;51.228;-2.322;2022-11-03T17:25:33;11.80;76.40
65406;DHT22;52016;51.228;-2.322;2022-11-03T17:29:16;11.80;76.60
65406;DHT22;52016;51.228;-2.322;2022-11-03T17:33:05;11.70;76.60
65406;DHT22;52016;51.228;-2.322;2022-11-03T17:36:47;11.70;76.50
65406;DHT22;52016;51.228;-2.322;2022-11-03T17:40:29;11.70;76.60
65406;DHT22;52016;51.228;-2.322;2022-11-03T17:44:11;11.70;76.60
65406;DHT22;52016;51.228;-2.322;2022-11-03T17:47:53;11.70;76.70
65406;DHT22;52016;51.228;-2.322;2022-11-03T17:51:39;11.60;76.80
65406;DHT22;52016;51.228;-2.322;2022-11-03T17:55:29;11.60;76.80
65406;DHT22;52016;51.228;-2.322;2022-11-03T17:59:13;11.60;77.00
65406;DHT22;52016;51.228;-2.322;2022-11-03T18:02:56;11.60;77.00
65406;DHT22;52016;51.228;-2.322;2022-11-03T18:06:38;11.60;77.00
65406;DHT22;52016;51.228;-2.322;2022-11-03T18:10:24;11.50;77.00
65406;DHT22;52016;51.228;-2.322;2022-11-03T18:14:10;11.50;77.00
65406;DHT22;52016;51.228;-2.322;2022-11-03T18:17:52;11.50;77.00
65406;DHT22;52016;51.228;-2.322;2022-11-03T18:21:33;11.50;77.10
65406;DHT22;52016;51.228;-2.322;2022-11-03T18:25:18;11.50;77.10
65406;DHT22;52016;51.228;-2.322;2022-11-03T18:29:00;11.50;77.20
65406;DHT22;52016;51.228;-2.322;2022-11-03T18:32:43;11.50;77.10
65406;DHT22;52016;51.228;-2.322;2022-11-03T18:36:31;11.50;77.00
65406;DHT22;52016;51.228;-2.322;2022-11-03T18:40:14;11.40;77.00
65406;DHT22;52016;51.228;-2.322;2022-11-03T18:43:56;11.40;77.00
65406;DHT22;52016;51.228;-2.322;2022-11-03T18:47:38;11.40;76.90
65406;DHT22;52016;51.228;-2.322;2022-11-03T18:51:20;11.40;76.90
65406;DHT22;52016;51.228;-2.322;2022-11-03T18:55:03;11.30;76.90
65406;DHT22;52016;51.228;-2.322;2022-11-03T18:58:45;11.40;76.80
65406;DHT22;52016;51.228;-2.322;2022-11-03T19:02:27;11.30;76.90
65406;DHT22;52016;51.228;-2.322;2022-11-03T19:06:09;11.20;77.00
65406;DHT22;52016;51.228;-2.322;2022-11-03T19:09:51;11.20;77.10
65406;DHT22;52016;51.228;-2.322;2022-11-03T19:13:36;11.10;77.10
65406;DHT22;52016;51.228;-2.322;2022-11-03T19:17:20;11.10;77.10
65406;DHT22;52016;51.228;-2.322;2022-11-03T19:24:54;11.00;77.20
65406;DHT22;52016;51.228;-2.322;2022-11-03T19:28:36;11.00;77.30
65406;DHT22;52016;51.228;-2.322;2022-11-03T19:32:38;11.00;77.30
65406;DHT22;52016;51.228;-2.322;2022-11-03T19:36:21;11.00;77.50
65406;DHT22;52016;51.228;-2.322;2022-11-03T19:40:06;11.00;77.40
65406;DHT22;52016;51.228;-2.322;2022-11-03T19:43:49;10.90;77.50
65406;DHT22;52016;51.228;-2.322;2022-11-03T19:47:35;10.90;77.50
65406;DHT22;52016;51.228;-2.322;2022-11-03T19:51:17;11.00;77.70
65406;DHT22;52016;51.228;-2.322;2022-11-03T19:55:04;10.90;77.60
65406;DHT22;52016;51.228;-2.322;2022-11-03T19:58:47;10.90;77.60
65406;DHT22;52016;51.228;-2.322;2022-11-03T20:02:29;10.90;77.70
65406;DHT22;52016;51.228;-2.322;2022-11-03T20:06:11;10.80;77.70
65406;DHT22;52016;51.228;-2.322;2022-11-03T20:10:00;10.80;77.80
65406;DHT22;52016;51.228;-2.322;2022-11-03T20:13:43;10.80;77.80
65406;DHT22;52016;51.228;-2.322;2022-11-03T20:17:24;10.90;77.80
65406;DHT22;52016;51.228;-2.322;2022-11-03T20:21:11;10.80;77.90
65406;DHT22;52016;51.228;-2.322;2022-11-03T20:24:57;10.90;78.00
65406;DHT22;52016;51.228;-2.322;2022-11-03T20:28:41;10.90;78.10
65406;DHT22;52016;51.228;-2.322;2022-11-03T20:32:23;10.90;78.00
65406;DHT22;52016;51.228;-2.322;2022-11-03T20:36:05;10.90;77.90
65406;DHT22;52016;51.228;-2.322;2022-11-03T20:39:47;10.90;77.90
65406;DHT22;52016;51.228;-2.322;2022-11-03T20:43:31;10.90;78.00
65406;DHT22;52016;51.228;-2.322;2022-11-03T20:47:15;10.80;78.00
65406;DHT22;52016;51.228;-2.322;2022-11-03T20:50:58;10.80;78.00
65406;DHT22;52016;51.228;-2.322;2022-11-03T20:54:41;10.80;78.20
65406;DHT22;52016;51.228;-2.322;2022-11-03T20:58:23;10.80;78.20
65406;DHT22;52016;51.228;-2.322;2022-11-03T21:02:12;10.80;78.50
65406;DHT22;52016;51.228;-2.322;2022-11-03T21:05:54;10.80;78.70
65406;DHT22;52016;51.228;-2.322;2022-11-03T21:09:36;10.80;78.70
65406;DHT22;52016;51.228;-2.322;2022-11-03T21:13:18;10.80;78.70
65406;DHT22;52016;51.228;-2.322;2022-11-03T21:17:00;10.80;78.90
65406;DHT22;52016;51.228;-2.322;2022-11-03T21:21:01;10.90;78.90
65406;DHT22;52016;51.228;-2.322;2022-11-03T21:24:43;10.90;78.80
65406;DHT22;52016;51.228;-2.322;2022-11-03T21:28:25;10.90;78.70
65406;DHT22;52016;51.228;-2.322;2022-11-03T21:32:10;10.90;78.70
65406;DHT22;52016;51.228;-2.322;2022-11-03T21:35:52;10.80;78.70
65406;DHT22;52016;51.228;-2.322;2022-11-03T21:39:34;10.80;78.90
65406;DHT22;52016;51.228;-2.322;2022-11-03T21:43:17;10.70;79.10
65406;DHT22;52016;51.228;-2.322;2022-11-03T21:47:17;10.70;79.20
65406;DHT22;52016;51.228;-2.322;2022-11-03T21:51:01;10.80;79.30
65406;DHT22;52016;51.228;-2.322;2022-11-03T21:54:44;10.80;79.30
65406;DHT22;52016;51.228;-2.322;2022-11-03T21:58:25;10.80;79.40
65406;DHT22;52016;51.228;-2.322;2022-11-03T22:02:09;10.80;79.30
65406;DHT22;52016;51.228;-2.322;2022-11-03T22:05:58;10.80;79.30
65406;DHT22;52016;51.228;-2.322;2022-11-03T22:09:40;10.80;79.30
65406;DHT22;52016;51.228;-2.322;2022-11-03T22:13:22;10.80;79.20
65406;DHT22;52016;51.228;-2.322;2022-11-03T22:17:06;10.70;79.30
65406;DHT22;52016;51.228;-2.322;2022-11-03T22:20:47;10.60;79.50
65406;DHT22;52016;51.228;-2.322;2022-11-03T22:24:48;10.50;79.50
65406;DHT22;52016;51.228;-2.322;2022-11-03T22:28:48;10.50;79.50
65406;DHT22;52016;51.228;-2.322;2022-11-03T22:32:52;10.40;79.60
65406;DHT22;52016;51.228;-2.322;2022-11-03T22:36:34;10.40;79.60
65406;DHT22;52016;51.228;-2.322;2022-11-03T22:40:16;10.40;79.70
65406;DHT22;52016;51.228;-2.322;2022-11-03T22:44:17;10.30;79.70
65406;DHT22;52016;51.228;-2.322;2022-11-03T22:48:18;10.30;79.90
65406;DHT22;52016;51.228;-2.322;2022-11-03T22:51:59;10.30;79.90
65406;DHT22;52016;51.228;-2.322;2022-11-03T22:55:41;10.30;79.90
65406;DHT22;52016;51.228;-2.322;2022-11-03T22:59:23;10.30;80.00
65406;DHT22;52016;51.228;-2.322;2022-11-03T23:03:05;10.30;80.00
65406;DHT22;52016;51.228;-2.322;2022-11-03T23:06:47;10.20;80.10
65406;DHT22;52016;51.228;-2.322;2022-11-03T23:10:29;10.20;80.10
65406;DHT22;52016;51.228;-2.322;2022-11-03T23:14:11;10.20;80.10
65406;DHT22;52016;51.228;-2.322;2022-11-03T23:17:53;10.10;80.10
65406;DHT22;52016;51.228;-2.322;2022-11-03T23:21:53;10.00;80.20
65406;DHT22;52016;51.228;-2.322;2022-11-03T23:25:35;9.90;80.30
65406;DHT22;52016;51.228;-2.322;2022-11-03T23:29:17;9.90;80.20
65406;DHT22;52016;51.228;-2.322;2022-11-03T23:32:59;9.90;80.30
65406;DHT22;52016;51.228;-2.322;2022-11-03T23:36:41;9.80;80.40
65406;DHT22;52016;51.228;-2.322;2022-11-03T23:40:23;9.80;80.50
65406;DHT22;52016;51.228;-2.322;2022-11-03T23:44:05;9.80;80.60
65406;DHT22;52016;51.228;-2.322;2022-11-03T23:47:47;9.80;80.60
65406;DHT22;52016;51.228;-2.322;2022-11-03T23:51:49;9.70;80.50
65406;DHT22;52016;51.228;-2.322;2022-11-03T23:55:32;9.60;80.60
65406;DHT22;52016;51.228;-2.322;2022-11-03T23:59:34;9.60;80.50
